Time;durP1;ratioP1;P1;durP2;ratioP2;P2;SDS_P1;SDS_P2;PMS_P1;PMS_P2;Temp;Humidity;BMP_temperature;BMP_pressure;BME280_temperature;BME280_humidity;BME280_pressure;Samples;Min_cycle;Max_cycle;Signal;HPM_P1;HPM_P2
2022/04/28 00:01:54;;;;;;;;;;;;;;;9.01;56.26;93388.63;2071644;69;20085;-71
2022/04/28 00:04:19;;;;;;;;;;;;;;;9.12;54.29;93388.84;2058508;69;20050;-70
2022/04/28 00:06:45;;;;;;;;;;;;;;;8.98;56.17;93386.97;2058791;69;20484;-70
2022/04/28 00:09:10;;;;;;;;;;;;;;;8.82;56.64;93386.47;2071697;69;20064;-70
2022/04/28 00:11:36;;;;;;;;;;;;;;;9.19;53.09;93378.78;2068830;69;20417;-70
2022/04/28 00:14:02;;;;;;;;;;;;;;;8.94;56.31;93373.38;2071752;69;20126;-71
2022/04/28 00:16:28;;;;;;;;;;;;;;;9.08;55.90;93376.56;2058696;69;20053;-69
2022/04/28 00:18:53;;;;;;;;;;;;;;;8.92;55.49;93376.03;2058516;69;20085;-70
2022/04/28 00:21:19;;;;;;;;;;;;;;;8.97;55.19;93372.19;2059126;69;20054;-71
2022/04/28 00:23:44;;;;;;;;;;;;;;;8.72;56.27;93377.25;2069282;69;20058;-71
2022/04/28 00:26:10;;;;;;;;;;;;;;;8.78;55.50;93377.72;2059004;69;20057;-70
2022/04/28 00:28:36;;;;;;;;;;;;;;;8.91;56.16;93372.47;2059123;69;20046;-70
2022/04/28 00:31:01;;;;;;;;;;;;;;;8.67;56.80;93376.22;2059203;69;20050;-70
2022/04/28 00:33:27;;;;;;;;;;;;;;;8.65;56.16;93382.38;2059147;69;20050;-69
2022/04/28 00:35:54;;;;;;;;;;;;;;;8.81;55.59;93385.72;2072263;69;20053;-70
2022/04/28 00:38:20;;;;;;;;;;;;;;;8.85;55.12;93379.69;2059262;69;20057;-71
2022/04/28 00:40:45;;;;;;;;;;;;;;;8.89;55.40;93377.94;2071965;69;20070;-71
2022/04/28 00:43:20;;;;;;;;;;;;;;;8.76;55.92;93380.41;2059007;69;20069;-71
2022/04/28 00:45:46;;;;;;;;;;;;;;;8.58;56.48;93383.25;2069473;69;20070;-71
2022/04/28 00:51:01;;;;;;;;;;;;;;;8.21;57.70;93376.78;2064560;69;20057;-70
2022/04/28 00:53:30;;;;;;;;;;;;;;;8.22;57.92;93374.72;2059199;69;20054;-71
2022/04/28 00:55:59;;;;;;;;;;;;;;;8.45;56.36;93380.81;2058971;69;20563;-71
2022/04/28 00:58:30;;;;;;;;;;;;;;;8.26;57.66;93380.66;2072047;69;20061;-70
2022/04/28 01:00:56;;;;;;;;;;;;;;;8.24;57.47;93378.41;2058904;69;20049;-71
2022/04/28 01:03:22;;;;;;;;;;;;;;;8.34;56.81;93378.50;2072079;69;20042;-72
2022/04/28 01:05:48;;;;;;;;;;;;;;;8.38;56.63;93376.00;2058765;69;20445;-72
2022/04/28 01:08:14;;;;;;;;;;;;;;;8.34;56.72;93373.63;2071750;69;20142;-70
2022/04/28 01:10:40;;;;;;;;;;;;;;;8.24;57.92;93374.84;2072076;69;20062;-71
2022/04/28 01:13:05;;;;;;;;;;;;;;;8.24;56.72;93374.84;2071783;69;20062;-71
2022/04/28 01:15:59;;;;;;;;;;;;;;;8.03;58.56;93376.06;2071824;69;20077;-70
2022/04/28 01:18:24;;;;;;;;;;;;;;;7.88;59.20;93379.78;2070504;69;20166;-71
2022/04/28 01:20:50;;;;;;;;;;;;;;;7.96;58.78;93379.66;2058983;69;20145;-69
2022/04/28 01:23:18;;;;;;;;;;;;;;;7.90;58.58;93384.78;2072007;69;20429;-70
2022/04/28 01:25:44;;;;;;;;;;;;;;;7.94;58.73;93382.31;2071943;69;20061;-71
2022/04/28 01:28:09;;;;;;;;;;;;;;;7.94;58.79;93375.97;2069269;69;20421;-70
2022/04/28 01:30:37;;;;;;;;;;;;;;;7.94;58.35;93378.78;2072101;69;20062;-69
2022/04/28 01:33:02;;;;;;;;;;;;;;;7.62;59.72;93372.00;2072143;69;20061;-70
2022/04/28 01:35:28;;;;;;;;;;;;;;;7.73;59.32;93373.56;2072065;69;20046;-68
2022/04/28 01:37:55;;;;;;;;;;;;;;;7.76;58.43;93372.44;2059104;69;20065;-69
2022/04/28 01:40:21;;;;;;;;;;;;;;;7.94;56.72;93375.97;2072102;69;20701;-70
2022/04/28 01:42:50;;;;;;;;;;;;;;;7.71;58.93;93362.22;2069354;69;20173;-69
2022/04/28 01:45:18;;;;;;;;;;;;;;;7.59;59.26;93368.28;2072096;69;20051;-70
2022/04/28 01:48:07;;;;;;;;;;;;;;;7.59;59.59;93370.34;2063065;69;20061;-70
2022/04/28 02:00:12;;;;;;;;;;;;;;;7.51;59.13;93362.00;2059123;69;20111;-71
2022/04/28 02:02:43;;;;;;;;;;;;;;;7.49;58.88;93375.84;2071964;69;20150;-70
2022/04/28 02:05:10;;;;;;;;;;;;;;;7.43;60.41;93375.38;2071982;69;20089;-70
2022/04/28 02:07:36;;;;;;;;;;;;;;;7.37;60.48;93366.44;2059059;69;20140;-70
2022/04/28 02:10:02;;;;;;;;;;;;;;;7.42;59.82;93367.53;2071970;69;20422;-70
2022/04/28 02:12:28;;;;;;;;;;;;;;;7.55;59.74;93370.00;2071999;69;20057;-69
2022/04/28 02:15:12;;;;;;;;;;;;;;;7.36;60.07;93362.91;2058860;69;20057;-69
2022/04/28 02:17:56;;;;;;;;;;;;;;;7.36;59.83;93367.75;2058913;69;20060;-71
2022/04/28 02:20:22;;;;;;;;;;;;;;;7.49;58.79;93372.31;2071895;69;20046;-69
2022/04/28 02:22:49;;;;;;;;;;;;;;;7.28;60.29;93367.09;2071966;69;20043;-70
2022/04/28 02:25:16;;;;;;;;;;;;;;;7.20;60.30;93363.63;2071751;69;20054;-70
2022/04/28 02:27:41;;;;;;;;;;;;;;;7.12;60.93;93374.88;2071908;69;20050;-70
2022/04/28 02:33:35;;;;;;;;;;;;;;;7.09;60.36;93378.81;2058935;69;20176;-70
2022/04/28 02:36:06;;;;;;;;;;;;;;;7.06;60.68;93375.13;2071975;69;20061;-70
2022/04/28 02:38:35;;;;;;;;;;;;;;;7.07;59.88;93373.81;2071924;69;20156;-71
2022/04/28 02:41:03;;;;;;;;;;;;;;;7.22;59.02;93381.31;2058750;69;20520;-70
2022/04/28 02:43:29;;;;;;;;;;;;;;;6.90;60.95;93381.41;2071720;69;20054;-70
2022/04/28 02:46:02;;;;;;;;;;;;;;;6.90;61.58;93381.41;2071868;69;20156;-70
2022/04/28 02:48:40;;;;;;;;;;;;;;;6.95;61.06;93378.38;2071899;69;20081;-70
2022/04/28 02:51:06;;;;;;;;;;;;;;;6.98;60.38;93379.28;2071932;69;20054;-70
2022/04/28 02:53:34;;;;;;;;;;;;;;;6.94;60.91;93385.28;2058866;69;20065;-70
2022/04/28 02:56:00;;;;;;;;;;;;;;;6.73;61.38;93385.59;2071763;69;20046;-70
2022/04/28 02:58:25;;;;;;;;;;;;;;;6.67;61.50;93387.16;2071832;69;20065;-71
2022/04/28 03:00:51;;;;;;;;;;;;;;;6.74;61.63;93389.91;2071784;69;20084;-71
2022/04/28 03:03:17;;;;;;;;;;;;;;;6.71;62.33;93385.44;2071779;69;20062;-70
2022/04/28 03:11:11;;;;;;;;;;;;;;;6.69;61.30;93395.69;2071693;69;20050;-69
2022/04/28 03:13:37;;;;;;;;;;;;;;;6.59;61.99;93393.53;2071749;69;20057;-69
2022/04/28 03:16:03;;;;;;;;;;;;;;;6.63;61.33;93395.94;2071660;69;20076;-69
2022/04/28 03:19:07;;;;;;;;;;;;;;;6.68;60.94;93403.34;2060853;69;20061;-71
2022/04/28 03:21:33;;;;;;;;;;;;;;;6.69;61.75;93396.47;2071879;69;20053;-69
2022/04/28 03:24:01;;;;;;;;;;;;;;;6.61;61.66;93395.78;2071898;69;20050;-71
2022/04/28 03:26:29;;;;;;;;;;;;;;;6.52;61.60;93396.38;2071758;69;20470;-70
2022/04/28 03:28:56;;;;;;;;;;;;;;;6.66;61.48;93397.59;2071850;69;20123;-70
2022/04/28 03:31:22;;;;;;;;;;;;;;;6.74;60.95;93394.75;2071830;69;20050;-71
2022/04/28 03:34:18;;;;;;;;;;;;;;;6.76;61.19;93397.72;2065698;69;20155;-70
2022/04/28 03:36:50;;;;;;;;;;;;;;;6.59;60.94;93395.56;2071808;69;20076;-70
2022/04/28 03:39:17;;;;;;;;;;;;;;;6.64;61.24;93391.81;2071814;69;20049;-70
2022/04/28 03:41:43;;;;;;;;;;;;;;;6.45;61.60;93394.34;2071692;69;20111;-70
2022/04/28 03:44:11;;;;;;;;;;;;;;;6.65;59.89;93396.13;2068844;69;20042;-70
2022/04/28 03:46:37;;;;;;;;;;;;;;;6.56;61.23;93391.88;2071756;69;20557;-71
2022/04/28 03:49:04;;;;;;;;;;;;;;;6.61;61.06;93398.56;2069075;69;20141;-71
2022/04/28 03:51:29;;;;;;;;;;;;;;;6.62;60.07;93395.19;2071802;69;20153;-71
2022/04/28 03:54:00;;;;;;;;;;;;;;;6.49;60.97;93394.72;2072144;69;20057;-71
2022/04/28 03:56:29;;;;;;;;;;;;;;;6.51;61.12;93397.69;2072318;69;20162;-71
2022/04/28 03:58:57;;;;;;;;;;;;;;;6.16;63.29;93403.06;2072063;69;20109;-71
2022/04/28 04:01:23;;;;;;;;;;;;;;;6.33;62.21;93405.97;2072291;69;20058;-71
2022/04/28 04:04:07;;;;;;;;;;;;;;;6.27;62.91;93408.22;2072356;69;20137;-71
2022/04/28 04:06:36;;;;;;;;;;;;;;;6.20;61.71;93405.47;2072288;69;20477;-71
2022/04/28 04:09:25;;;;;;;;;;;;;;;6.31;62.00;93405.78;2059893;69;20536;-70
2022/04/28 04:11:51;;;;;;;;;;;;;;;6.18;61.97;93400.44;2059144;69;20043;-71
2022/04/28 04:14:18;;;;;;;;;;;;;;;6.30;62.07;93406.38;2071956;69;20096;-69
2022/04/28 04:16:43;;;;;;;;;;;;;;;6.23;62.11;93407.91;2072305;69;20082;-70
2022/04/28 04:19:11;;;;;;;;;;;;;;;6.17;62.31;93401.00;2059361;69;20474;-71
2022/04/28 04:21:43;;;;;;;;;;;;;;;6.17;61.97;93407.34;2072362;69;20050;-71
2022/04/28 04:24:08;;;;;;;;;;;;;;;6.14;61.90;93411.28;2072232;69;20053;-71
2022/04/28 04:26:37;;;;;;;;;;;;;;;6.09;62.89;93404.59;2072177;69;20085;-71
2022/04/28 04:29:03;;;;;;;;;;;;;;;6.18;62.23;93408.09;2071859;69;20057;-71
2022/04/28 04:34:55;;;;;;;;;;;;;;;6.23;61.88;93426.69;2072279;69;20069;-72
2022/04/28 04:37:26;;;;;;;;;;;;;;;6.13;62.35;93432.16;2072157;69;20054;-71
2022/04/28 04:39:51;;;;;;;;;;;;;;;6.21;61.75;93432.88;2072199;69;20050;-71
2022/04/28 04:42:17;;;;;;;;;;;;;;;6.10;61.95;93438.88;2059206;69;20049;-71
2022/04/28 04:44:43;;;;;;;;;;;;;;;6.04;63.09;93443.91;2072154;69;20057;-71
2022/04/28 04:47:12;;;;;;;;;;;;;;;6.09;62.41;93443.75;2072072;69;20061;-71
2022/04/28 04:49:53;;;;;;;;;;;;;;;6.21;62.14;93446.84;2072079;69;20077;-71
2022/04/28 04:52:31;;;;;;;;;;;;;;;6.22;62.01;93442.00;2072126;69;20090;-71
2022/04/28 04:55:01;;;;;;;;;;;;;;;6.21;62.65;93443.31;2059162;69;20470;-71
2022/04/28 04:57:27;;;;;;;;;;;;;;;6.18;62.58;93447.97;2072144;69;20050;-72
2022/04/28 04:59:53;;;;;;;;;;;;;;;6.09;63.22;93460.50;2069380;69;20486;-72
2022/04/28 05:02:19;;;;;;;;;;;;;;;6.16;62.69;93455.44;2072232;69;20049;-71
2022/04/28 05:05:03;;;;;;;;;;;;;;;5.94;64.47;93466.13;2059022;69;20159;-71
2022/04/28 05:11:18;;;;;;;;;;;;;;;6.08;63.02;93463.84;2058973;69;20133;-72
2022/04/28 05:14:05;;;;;;;;;;;;;;;6.11;63.24;93457.16;2072119;69;20069;-71
2022/04/28 05:16:30;;;;;;;;;;;;;;;6.25;62.96;93458.41;2072041;69;20053;-71
2022/04/28 05:22:48;;;;;;;;;;;;;;;6.31;62.57;93464.53;2059111;69;20057;-71
2022/04/28 05:25:33;;;;;;;;;;;;;;;6.11;64.00;93463.47;2059019;69;20061;-72
2022/04/28 05:28:17;;;;;;;;;;;;;;;6.08;63.73;93467.38;2059119;69;20065;-72
2022/04/28 05:31:18;;;;;;;;;;;;;;;6.06;64.08;93467.22;2059118;69;20424;-71
2022/04/28 05:34:03;;;;;;;;;;;;;;;6.14;64.09;93469.22;2062987;69;20413;-71
2022/04/28 05:36:38;;;;;;;;;;;;;;;6.22;63.23;93473.50;2059207;69;20054;-71
2022/04/28 05:39:03;;;;;;;;;;;;;;;6.14;64.16;93464.41;2072148;69;20098;-71
2022/04/28 05:41:29;;;;;;;;;;;;;;;6.24;62.75;93465.31;2058917;69;20421;-72
2022/04/28 05:46:53;;;;;;;;;;;;;;;6.21;64.66;93479.66;2063785;69;20084;-72
2022/04/28 05:49:19;;;;;;;;;;;;;;;6.15;64.37;93477.06;2072118;69;20052;-70
2022/04/28 05:51:45;;;;;;;;;;;;;;;6.09;65.29;93471.69;2059107;69;20081;-71
2022/04/28 05:54:12;;;;;;;;;;;;;;;6.26;64.09;93478.72;2071779;69;20060;-71
2022/04/28 05:56:38;;;;;;;;;;;;;;;6.45;62.31;93470.63;2072015;69;20046;-71
2022/04/28 06:02:37;;;;;;;;;;;;;;;6.45;63.21;93478.28;2058891;69;20131;-71
2022/04/28 06:05:07;;;;;;;;;;;;;;;6.52;63.21;93477.50;2071932;69;20157;-71
2022/04/28 06:07:32;;;;;;;;;;;;;;;6.42;64.11;93479.41;2072061;69;20142;-72
2022/04/28 06:09:59;;;;;;;;;;;;;;;6.53;62.60;93490.91;2071968;69;20050;-71
2022/04/28 06:12:27;;;;;;;;;;;;;;;6.61;62.68;93494.44;2059003;69;20062;-72
2022/04/28 06:15:15;;;;;;;;;;;;;;;6.58;63.72;93484.38;2061233;69;20561;-71
2022/04/28 06:17:44;;;;;;;;;;;;;;;6.57;63.61;93493.34;2071807;69;20156;-71
2022/04/28 06:20:10;;;;;;;;;;;;;;;6.56;63.65;93494.66;2072063;69;20123;-72
2022/04/28 06:22:55;;;;;;;;;;;;;;;6.54;63.88;93488.88;2058981;69;20166;-73
2022/04/28 06:25:23;;;;;;;;;;;;;;;6.58;63.88;93494.81;2071909;69;20088;-72
2022/04/28 06:27:50;;;;;;;;;;;;;;;6.65;63.97;93487.72;2072097;69;20049;-73
2022/04/28 06:30:16;;;;;;;;;;;;;;;6.99;64.07;93490.69;2058968;69;20065;-74
2022/04/28 06:32:42;;;;;;;;;;;;;;;7.16;60.93;93503.31;2071973;69;20049;-73
2022/04/28 06:35:25;;;;;;;;;;;;;;;7.40;61.19;93499.75;2072060;69;20073;-73
2022/04/28 06:37:51;;;;;;;;;;;;;;;7.57;60.20;93499.09;2072036;69;20095;-73
2022/04/28 06:40:17;;;;;;;;;;;;;;;7.69;60.14;93493.75;2071959;69;20046;-72
2022/04/28 06:42:44;;;;;;;;;;;;;;;7.95;58.32;93509.22;2072018;69;20566;-72
2022/04/28 06:45:22;;;;;;;;;;;;;;;8.01;60.30;93490.84;2059016;69;20046;-72
2022/04/28 06:48:20;;;;;;;;;;;;;;;8.35;56.26;93506.22;2061430;69;20552;-73
2022/04/28 06:51:15;;;;;;;;;;;;;;;8.52;59.11;93500.63;2058924;69;20146;-72
2022/04/28 06:54:09;;;;;;;;;;;;;;;8.67;58.52;93501.78;2060718;69;20087;-72
2022/04/28 06:56:35;;;;;;;;;;;;;;;8.64;60.84;93500.88;2071848;69;20168;-72
2022/04/28 07:02:34;;;;;;;;;;;;;;;9.38;56.99;93501.75;2058969;69;20049;-73
2022/04/28 07:05:00;;;;;;;;;;;;;;;9.77;57.85;93501.94;2071919;69;20077;-75
2022/04/28 07:07:26;;;;;;;;;;;;;;;10.09;56.73;93495.94;2071912;69;20054;-73
2022/04/28 07:09:55;;;;;;;;;;;;;;;10.28;53.41;93495.28;2071905;69;20101;-73
2022/04/28 07:12:21;;;;;;;;;;;;;;;10.45;54.45;93497.22;2071899;69;20181;-73
2022/04/28 07:15:12;;;;;;;;;;;;;;;10.90;54.64;93494.81;2060807;69;20172;-73
2022/04/28 07:17:37;;;;;;;;;;;;;;;11.07;52.64;93491.84;2059009;69;20078;-73
2022/04/28 07:20:04;;;;;;;;;;;;;;;11.52;52.93;93489.34;2071879;69;20049;-73
2022/04/28 07:22:30;;;;;;;;;;;;;;;11.69;52.49;93496.88;2068758;69;20074;-73
2022/04/28 07:24:55;;;;;;;;;;;;;;;11.91;51.03;93494.84;2071722;69;20450;-73
2022/04/28 07:27:21;;;;;;;;;;;;;;;12.14;50.53;93497.09;2068995;69;20413;-72
2022/04/28 07:29:52;;;;;;;;;;;;;;;12.55;51.74;93494.91;2072915;69;20050;-73
2022/04/28 07:32:34;;;;;;;;;;;;;;;12.76;49.76;93493.44;2073184;69;20557;-73
2022/04/28 07:35:15;;;;;;;;;;;;;;;13.17;49.96;93488.31;2060054;69;20108;-73
2022/04/28 07:37:59;;;;;;;;;;;;;;;13.72;48.35;93489.69;2060094;69;20140;-72
2022/04/28 07:40:29;;;;;;;;;;;;;;;13.82;47.20;93481.06;2059916;69;20056;-73
2022/04/28 07:42:58;;;;;;;;;;;;;;;13.93;47.51;93485.28;2070229;69;20450;-73
2022/04/28 07:45:23;;;;;;;;;;;;;;;14.06;45.79;93478.97;2072936;69;20127;-73
2022/04/28 07:47:49;;;;;;;;;;;;;;;14.03;44.58;93476.66;2072988;69;20131;-73
2022/04/28 07:50:22;;;;;;;;;;;;;;;14.45;45.46;93482.03;2073009;69;20162;-73
2022/04/28 07:52:48;;;;;;;;;;;;;;;14.52;44.54;93488.78;2072957;69;20087;-73
2022/04/28 07:55:13;;;;;;;;;;;;;;;15.18;44.41;93474.16;2072848;69;20054;-73
2022/04/28 07:57:41;;;;;;;;;;;;;;;15.06;44.38;93479.16;2069872;69;20058;-73
2022/04/28 08:00:08;;;;;;;;;;;;;;;14.67;44.04;93482.63;2073055;69;20148;-73
2022/04/28 08:02:41;;;;;;;;;;;;;;;14.20;44.44;93479.84;2059903;69;20072;-73
2022/04/28 08:05:08;;;;;;;;;;;;;;;15.24;41.81;93477.34;2072998;69;20061;-72
2022/04/28 08:07:34;;;;;;;;;;;;;;;15.40;43.21;93473.94;2059875;69;20413;-72
2022/04/28 08:10:03;;;;;;;;;;;;;;;16.06;43.37;93478.22;2059753;69;20430;-72
2022/04/28 08:12:30;;;;;;;;;;;;;;;16.01;41.90;93477.25;2072875;69;20149;-72
2022/04/28 08:14:57;;;;;;;;;;;;;;;16.48;42.13;93469.03;2072855;69;20558;-73
2022/04/28 08:17:23;;;;;;;;;;;;;;;16.29;41.80;93466.63;2072918;69;20119;-73
2022/04/28 08:19:50;;;;;;;;;;;;;;;16.55;41.08;93464.44;2072839;69;20058;-73
2022/04/28 08:22:18;;;;;;;;;;;;;;;16.39;41.28;93458.63;2059821;69;20136;-73
2022/04/28 08:28:13;;;;;;;;;;;;;;;16.89;41.60;93454.06;2059848;69;20107;-73
2022/04/28 08:30:39;;;;;;;;;;;;;;;17.24;40.12;93461.44;2072897;69;20489;-73
2022/04/28 08:33:05;;;;;;;;;;;;;;;16.85;39.08;93465.22;2072853;69;20053;-74
2022/04/28 08:38:58;;;;;;;;;;;;;;;16.75;37.89;93464.72;2059823;69;20525;-73
2022/04/28 08:41:33;;;;;;;;;;;;;;;17.72;39.23;93465.09;2069317;69;20542;-73
2022/04/28 08:44:35;;;;;;;;;;;;;;;17.53;37.73;93461.41;2072222;69;20220;-74
2022/04/28 08:47:18;;;;;;;;;;;;;;;17.57;39.25;93451.59;2072258;69;20058;-73
2022/04/28 08:49:57;;;;;;;;;;;;;;;18.47;38.87;93456.41;2072272;69;20046;-72
2022/04/28 08:52:30;;;;;;;;;;;;;;;18.31;38.86;93450.72;2069608;69;20050;-72
2022/04/28 08:55:06;;;;;;;;;;;;;;;18.43;37.50;93456.94;2072295;69;20074;-72
2022/04/28 08:57:34;;;;;;;;;;;;;;;19.10;37.92;93452.63;2069397;69;20061;-72
2022/04/28 09:03:29;;;;;;;;;;;;;;;20.35;36.28;93461.81;2059214;69;20570;-73
2022/04/28 09:06:24;;;;;;;;;;;;;;;20.06;34.35;93454.28;2070185;69;20130;-72
2022/04/28 09:09:10;;;;;;;;;;;;;;;20.46;36.00;93454.31;2059323;69;20497;-72
2022/04/28 09:11:59;;;;;;;;;;;;;;;21.13;34.39;93461.69;2059049;69;20107;-74
2022/04/28 09:14:55;;;;;;;;;;;;;;;20.45;34.34;93453.59;2062297;69;20057;-72
2022/04/28 09:17:21;;;;;;;;;;;;;;;21.34;34.80;93448.78;2072162;69;20145;-73
2022/04/28 09:19:57;;;;;;;;;;;;;;;20.94;33.48;93451.75;2072152;69;20061;-72
2022/04/28 09:22:25;;;;;;;;;;;;;;;22.14;31.06;93440.53;2072149;69;20050;-73
2022/04/28 09:24:59;;;;;;;;;;;;;;;21.77;33.11;93448.00;2072034;69;20054;-72
2022/04/28 09:27:26;;;;;;;;;;;;;;;22.07;32.72;93440.31;2072073;69;20050;-73
2022/04/28 09:29:54;;;;;;;;;;;;;;;21.85;32.52;93433.91;2069421;69;20052;-73
2022/04/28 09:32:21;;;;;;;;;;;;;;;19.70;34.26;93440.09;2072160;69;20417;-73
2022/04/28 09:35:04;;;;;;;;;;;;;;;21.46;33.60;93432.72;2059091;69;20096;-73
2022/04/28 09:37:48;;;;;;;;;;;;;;;22.74;32.40;93430.03;2059149;69;20053;-73
2022/04/28 09:43:01;;;;;;;;;;;;;;;23.28;32.61;93429.31;2072105;69;20050;-74
2022/04/28 09:45:33;;;;;;;;;;;;;;;23.76;31.08;93423.28;2072145;69;20053;-73
2022/04/28 09:48:00;;;;;;;;;;;;;;;23.53;30.39;93422.00;2069324;69;20062;-73
2022/04/28 09:50:28;;;;;;;;;;;;;;;23.99;31.48;93413.75;2072043;69;20433;-73
2022/04/28 09:53:15;;;;;;;;;;;;;;;23.30;29.09;93403.50;2066330;69;20148;-74
2022/04/28 09:55:56;;;;;;;;;;;;;;;23.68;30.03;93403.69;2071973;69;20134;-75
2022/04/28 09:58:55;;;;;;;;;;;;;;;24.35;29.94;93404.44;2063730;69;20144;-75
2022/04/28 10:01:21;;;;;;;;;;;;;;;24.16;30.19;93399.72;2072092;69;20062;-75
2022/04/28 10:03:47;;;;;;;;;;;;;;;24.74;28.10;93408.09;2071746;69;20050;-73
2022/04/28 10:06:16;;;;;;;;;;;;;;;24.08;29.85;93394.53;2072044;69;20150;-74
2022/04/28 10:08:46;;;;;;;;;;;;;;;23.12;29.26;93391.56;2058991;69;20203;-73
2022/04/28 10:11:19;;;;;;;;;;;;;;;23.87;27.53;93390.50;2071924;69;20050;-73
2022/04/28 10:13:46;;;;;;;;;;;;;;;23.75;28.67;93384.47;2069312;69;20509;-74
2022/04/28 10:16:13;;;;;;;;;;;;;;;23.73;28.38;93393.03;2071947;69;20140;-73
2022/04/28 10:18:45;;;;;;;;;;;;;;;23.06;28.45;93387.13;2072009;69;20092;-73
2022/04/28 10:21:17;;;;;;;;;;;;;;;23.94;26.81;93383.44;2059012;69;20065;-74
2022/04/28 10:33:19;;;;;;;;;;;;;;;25.29;26.54;93383.94;2059055;69;20111;-73
2022/04/28 10:35:48;;;;;;;;;;;;;;;25.29;25.00;93380.28;2059034;69;20046;-74
2022/04/28 10:38:18;;;;;;;;;;;;;;;24.29;25.23;93373.41;2059088;69;20050;-73
2022/04/28 10:44:18;;;;;;;;;;;;;;;26.31;23.36;93371.00;2058184;69;20536;-72
2022/04/28 10:47:07;;;;;;;;;;;;;;;26.37;22.45;93379.00;2071231;69;20141;-71
2022/04/28 10:49:39;;;;;;;;;;;;;;;27.16;23.25;93367.63;2058180;69;20126;-71
2022/04/28 10:55:33;;;;;;;;;;;;;;;28.95;21.01;93370.91;2058107;69;20053;-73
2022/04/28 10:58:17;;;;;;;;;;;;;;;29.66;20.46;93376.06;2071103;69;20053;-73
2022/04/28 11:04:20;;;;;;;;;;;;;;;32.99;18.31;93373.97;2058002;69;20111;-73
2022/04/28 11:06:46;;;;;;;;;;;;;;;35.27;15.35;93372.94;2058282;69;20073;-74
2022/04/28 11:09:13;;;;;;;;;;;;;;;35.84;15.41;93379.72;2058807;69;20062;-74
2022/04/28 11:11:46;;;;;;;;;;;;;;;36.32;14.82;93377.06;2058656;69;20481;-73
2022/04/28 11:14:12;;;;;;;;;;;;;;;35.35;15.32;93369.13;2071883;69;20146;-74
2022/04/28 11:16:41;;;;;;;;;;;;;;;36.70;14.65;93374.59;2071798;69;20053;-76
2022/04/28 11:19:08;;;;;;;;;;;;;;;34.95;15.14;93370.72;2071873;69;20054;-73
2022/04/28 11:21:41;;;;;;;;;;;;;;;39.21;13.78;93367.25;2058767;69;20052;-74
2022/04/28 11:24:08;;;;;;;;;;;;;;;37.08;12.45;93369.88;2058747;69;20140;-75
2022/04/28 11:26:43;;;;;;;;;;;;;;;37.46;14.00;93365.09;2071754;69;20042;-76
2022/04/28 11:29:24;;;;;;;;;;;;;;;37.91;13.37;93363.69;2071905;69;20053;-72
2022/04/28 11:31:50;;;;;;;;;;;;;;;37.96;13.73;93362.06;2071824;69;20050;-73
2022/04/28 11:34:17;;;;;;;;;;;;;;;39.44;12.55;93354.63;2071788;69;20062;-72
2022/04/28 11:36:43;;;;;;;;;;;;;;;41.64;10.68;93360.69;2058753;69;20058;-72
2022/04/28 11:39:09;;;;;;;;;;;;;;;41.28;11.41;93366.06;2058649;69;20060;-72
2022/04/28 11:41:38;;;;;;;;;;;;;;;39.34;11.73;93356.44;2058711;69;20056;-74
2022/04/28 11:44:08;;;;;;;;;;;;;;;40.60;12.16;93364.69;2058715;69;20135;-73
2022/04/28 11:46:37;;;;;;;;;;;;;;;41.61;11.65;93365.28;2058668;69;20050;-72
2022/04/28 11:49:03;;;;;;;;;;;;;;;40.62;10.58;93368.25;2058749;69;20141;-72
2022/04/28 11:51:31;;;;;;;;;;;;;;;39.74;11.63;93350.50;2071843;69;20141;-72
2022/04/28 11:53:57;;;;;;;;;;;;;;;38.18;11.93;93345.88;2071729;69;20133;-73
2022/04/28 11:56:29;;;;;;;;;;;;;;;39.79;11.39;93348.09;2071785;69;20220;-73
2022/04/28 11:58:55;;;;;;;;;;;;;;;41.51;10.58;93350.28;2058763;69;20410;-73
2022/04/28 12:01:20;;;;;;;;;;;;;;;40.42;11.38;93345.50;2058797;69;20135;-71
2022/04/28 12:03:47;;;;;;;;;;;;;;;40.02;9.80;93353.81;2058691;69;20540;-72
2022/04/28 12:06:14;;;;;;;;;;;;;;;37.99;12.45;93336.97;2071661;69;20046;-74
2022/04/28 12:14:54;;;;;;;;;;;;;;;41.20;10.87;93336.22;2058259;69;20046;-77
2022/04/28 12:20:09;;;;;;;;;;;;;;;38.57;11.75;93341.63;2058659;69;20145;-72
2022/04/28 12:26:06;;;;;;;;;;;;;;;41.59;9.42;93338.78;2058967;69;20157;-71
2022/04/28 12:28:36;;;;;;;;;;;;;;;39.61;9.91;93329.63;2072196;69;20050;-74
2022/04/28 12:31:04;;;;;;;;;;;;;;;42.29;9.97;93336.16;2072192;69;20478;-75
2022/04/28 12:33:33;;;;;;;;;;;;;;;41.12;9.29;93340.94;2059029;69;20118;-75
2022/04/28 12:35:59;;;;;;;;;;;;;;;43.61;8.97;93340.28;2059062;69;20713;-75
2022/04/28 12:38:28;;;;;;;;;;;;;;;40.98;9.47;93343.84;2059182;69;20056;-75
2022/04/28 12:40:53;;;;;;;;;;;;;;;41.32;9.30;93335.63;2069158;69;20046;-74
2022/04/28 12:43:39;;;;;;;;;;;;;;;42.05;9.56;93320.31;2072132;69;20084;-74
2022/04/28 12:46:06;;;;;;;;;;;;;;;40.52;10.04;93321.50;2058965;69;20050;-73
2022/04/28 12:48:39;;;;;;;;;;;;;;;37.90;9.84;93318.19;2069173;69;20086;-74
2022/04/28 12:51:16;;;;;;;;;;;;;;;42.55;9.69;93324.47;2072100;69;20049;-73
2022/04/28 12:53:53;;;;;;;;;;;;;;;44.21;9.17;93333.97;2072059;69;20058;-72
2022/04/28 12:56:28;;;;;;;;;;;;;;;45.43;8.03;93340.81;2072114;69;20046;-71
2022/04/28 12:58:56;;;;;;;;;;;;;;;45.19;7.99;93334.81;2059159;69;20050;-73
2022/04/28 13:01:21;;;;;;;;;;;;;;;44.45;7.98;93326.66;2072075;69;20050;-74
2022/04/28 13:07:15;;;;;;;;;;;;;;;46.00;8.13;93328.22;2059109;69;20057;-75
2022/04/28 13:09:40;;;;;;;;;;;;;;;43.68;7.77;93308.06;2059017;69;20086;-73
2022/04/28 13:12:06;;;;;;;;;;;;;;;39.79;9.32;93304.63;2058989;69;20120;-75
2022/04/28 13:14:32;;;;;;;;;;;;;;;42.56;8.29;93305.91;2071971;69;20056;-72
2022/04/28 13:16:57;;;;;;;;;;;;;;;40.47;9.04;93298.84;2059120;69;20061;-72
2022/04/28 13:22:51;;;;;;;;;;;;;;;39.59;8.85;93294.38;2058989;69;20092;-72
2022/04/28 13:25:18;;;;;;;;;;;;;;;42.61;7.80;93294.56;2058947;69;20436;-72
2022/04/28 13:27:44;;;;;;;;;;;;;;;45.46;7.23;93301.22;2058934;69;20512;-73
2022/04/28 13:30:10;;;;;;;;;;;;;;;45.94;7.71;93304.84;2058956;69;20431;-72
2022/04/28 13:32:36;;;;;;;;;;;;;;;46.03;7.58;93291.56;2059372;69;20052;-72
2022/04/28 13:35:02;;;;;;;;;;;;;;;46.82;7.05;93308.59;2059091;69;20502;-72
2022/04/28 13:37:29;;;;;;;;;;;;;;;46.78;6.94;93299.94;2058956;69;20497;-72
2022/04/28 13:39:54;;;;;;;;;;;;;;;45.57;6.64;93292.34;2058930;69;20117;-72
2022/04/28 13:42:20;;;;;;;;;;;;;;;42.02;7.92;93280.56;2059014;69;20137;-73
2022/04/28 13:44:46;;;;;;;;;;;;;;;40.26;8.12;93284.25;2058928;69;20058;-73
2022/04/28 13:47:11;;;;;;;;;;;;;;;37.26;9.83;93265.88;2059077;69;20500;-74
2022/04/28 13:49:36;;;;;;;;;;;;;;;35.90;10.53;93250.69;2072085;69;20046;-74
2022/04/28 13:52:03;;;;;;;;;;;;;;;32.37;12.32;93249.41;2071971;69;20494;-72
2022/04/28 13:54:29;;;;;;;;;;;;;;;30.80;13.51;93250.88;2059163;69;20050;-73
2022/04/28 13:56:54;;;;;;;;;;;;;;;30.09;14.85;93239.56;2058881;69;20042;-72
2022/04/28 13:59:20;;;;;;;;;;;;;;;29.67;15.67;93241.16;2058931;69;20117;-72
2022/04/28 14:01:46;;;;;;;;;;;;;;;28.96;15.06;93238.34;2058932;69;20073;-71
2022/04/28 14:04:18;;;;;;;;;;;;;;;28.67;15.71;93225.97;2071884;69;20061;-72
2022/04/28 14:06:45;;;;;;;;;;;;;;;29.30;16.02;93232.50;2059187;69;20124;-72
2022/04/28 14:09:10;;;;;;;;;;;;;;;27.57;16.16;93214.72;2059009;69;20062;-72
2022/04/28 14:11:37;;;;;;;;;;;;;;;25.62;17.82;93214.34;2058722;69;20070;-71
2022/04/28 14:14:03;;;;;;;;;;;;;;;25.76;18.86;93216.72;2059173;69;20529;-72
2022/04/28 14:16:29;;;;;;;;;;;;;;;27.13;19.53;93213.00;2059023;69;20094;-72
2022/04/28 14:18:54;;;;;;;;;;;;;;;27.10;19.09;93215.16;2071855;69;20099;-73
2022/04/28 14:21:20;;;;;;;;;;;;;;;27.16;19.31;93211.56;2058898;69;20081;-72
2022/04/28 14:23:45;;;;;;;;;;;;;;;27.39;19.14;93217.50;2072018;69;20165;-72
2022/04/28 14:29:39;;;;;;;;;;;;;;;26.45;18.98;93219.66;2058995;69;20045;-71
2022/04/28 14:35:34;;;;;;;;;;;;;;;24.48;19.63;93204.72;2058999;69;20056;-72
2022/04/28 14:38:01;;;;;;;;;;;;;;;23.71;19.96;93200.41;2058680;69;20092;-71
2022/04/28 14:40:26;;;;;;;;;;;;;;;23.31;20.78;93198.84;2058697;69;20444;-72
2022/04/28 14:42:52;;;;;;;;;;;;;;;23.66;20.85;93213.25;2058960;69;20050;-71
2022/04/28 14:54:14;;;;;;;;;;;;;;;23.38;22.34;93210.50;2058864;69;20213;-72
2022/04/28 15:00:13;;;;;;;;;;;;;;;23.54;22.14;93210.81;2058904;69;20057;-71
2022/04/28 15:02:39;;;;;;;;;;;;;;;23.79;21.69;93212.81;2058746;69;20119;-73